Time;durP1;ratioP1;P1;durP2;ratioP2;P2;SDS_P1;SDS_P2;PMS_P1;PMS_P2;Temp;Humidity;BMP_temperature;BMP_pressure;BME280_temperature;BME280_humidity;BME280_pressure;Samples;Min_cycle;Max_cycle;Signal;HPM_P1;HPM_P2
2022/04/28 00:00:03;;;;;;;11.68;4.90;;;4.80;99.90;;;;;;5009642;28;20124;-50
2022/04/28 00:02:28;;;;;;;11.52;5.07;;;4.70;99.90;;;;;;5029702;28;20480;-52
2022/04/28 00:04:55;;;;;;;8.43;3.85;;;4.70;99.90;;;;;;5012450;28;20040;-51
2022/04/28 00:07:20;;;;;;;8.43;4.45;;;4.60;99.90;;;;;;5031182;28;20041;-51
2022/04/28 00:09:46;;;;;;;10.10;5.30;;;4.60;99.90;;;;;;5012577;28;20029;-53
2022/04/28 00:12:12;;;;;;;12.02;5.22;;;4.60;99.90;;;;;;5030323;28;20029;-52
2022/04/28 00:14:38;;;;;;;6.90;4.22;;;4.50;99.90;;;;;;5021683;28;20079;-53
2022/04/28 00:17:04;;;;;;;7.50;4.20;;;4.50;99.90;;;;;;5031193;28;20026;-55
2022/04/28 00:19:30;;;;;;;10.90;4.60;;;4.50;99.90;;;;;;5030038;28;20493;-52
2022/04/28 00:21:55;;;;;;;10.15;5.28;;;4.40;99.90;;;;;;5022882;28;20038;-51
2022/04/28 00:24:21;;;;;;;5.82;4.05;;;4.40;99.90;;;;;;5016625;28;20409;-53
2022/04/28 00:26:46;;;;;;;7.25;4.50;;;4.40;99.90;;;;;;5030302;28;20095;-52
2022/04/28 00:29:12;;;;;;;6.45;4.53;;;4.30;99.90;;;;;;5030429;28;20072;-51
2022/04/28 00:31:37;;;;;;;9.50;5.03;;;4.30;99.90;;;;;;5029481;28;20025;-55
2022/04/28 00:34:03;;;;;;;9.38;4.90;;;4.30;99.90;;;;;;5028871;28;20037;-51
2022/04/28 00:36:29;;;;;;;9.30;5.03;;;4.30;99.90;;;;;;5023645;28;20029;-50
2022/04/28 00:38:55;;;;;;;7.82;4.95;;;4.20;99.90;;;;;;5021100;28;20022;-53
2022/04/28 00:41:20;;;;;;;9.02;4.53;;;4.20;99.90;;;;;;4982967;28;20034;-50
2022/04/28 00:43:50;;;;;;;7.35;5.25;;;4.10;99.90;;;;;;5012395;28;20496;-54
2022/04/28 00:46:16;;;;;;;7.10;4.72;;;4.10;99.90;;;;;;5028487;28;20401;-55
2022/04/28 00:51:28;;;;;;;9.45;4.90;;;4.00;99.90;;;;;;5029642;28;20090;-53
2022/04/28 00:53:55;;;;;;;10.63;5.97;;;4.00;99.90;;;;;;5029497;28;20013;-50
2022/04/28 00:56:21;;;;;;;8.43;5.45;;;3.90;99.90;;;;;;5029035;28;20021;-52
2022/04/28 00:58:49;;;;;;;7.15;5.57;;;3.90;99.90;;;;;;5026117;28;20076;-53
2022/04/28 01:01:16;;;;;;;10.30;5.85;;;3.90;99.90;;;;;;5026387;28;20029;-53
2022/04/28 01:03:42;;;;;;;9.32;5.45;;;3.90;99.90;;;;;;5027079;28;20033;-51
2022/04/28 01:06:08;;;;;;;11.73;6.32;;;3.80;99.90;;;;;;5029999;28;20055;-53
2022/04/28 01:08:34;;;;;;;9.13;6.38;;;3.80;99.90;;;;;;5029428;28;20784;-51
2022/04/28 01:11:00;;;;;;;12.32;6.40;;;3.70;99.90;;;;;;5029642;28;20056;-49
2022/04/28 01:13:26;;;;;;;11.68;5.60;;;3.70;99.90;;;;;;5028763;28;20027;-49
2022/04/28 01:15:51;;;;;;;8.80;6.38;;;3.60;99.90;;;;;;5029728;28;20021;-51
2022/04/28 01:18:18;;;;;;;11.63;5.90;;;3.60;99.90;;;;;;5029507;28;20034;-50
2022/04/28 01:20:43;;;;;;;13.95;7.55;;;3.60;99.90;;;;;;5029260;28;20409;-50
2022/04/28 01:23:09;;;;;;;14.38;7.28;;;3.60;99.90;;;;;;5028976;28;20048;-50
2022/04/28 01:25:35;;;;;;;11.30;6.72;;;3.60;99.90;;;;;;5029248;28;20427;-51
2022/04/28 01:28:01;;;;;;;10.38;6.15;;;3.60;99.90;;;;;;5029351;28;20029;-53
2022/04/28 01:30:28;;;;;;;9.32;6.18;;;3.50;99.90;;;;;;5029409;28;20056;-52
2022/04/28 01:32:54;;;;;;;7.25;5.85;;;3.50;99.90;;;;;;5028751;28;20030;-51
2022/04/28 01:35:20;;;;;;;13.32;6.70;;;3.50;99.90;;;;;;5029359;28;20029;-55
2022/04/28 01:37:46;;;;;;;9.13;6.35;;;3.50;99.90;;;;;;5029167;28;20439;-51
2022/04/28 01:40:12;;;;;;;10.52;6.70;;;3.40;99.90;;;;;;5029011;28;20461;-51
2022/04/28 01:42:41;;;;;;;10.48;5.78;;;3.40;99.90;;;;;;5028846;28;20068;-50
2022/04/28 01:45:08;;;;;;;8.77;5.85;;;3.40;99.90;;;;;;5029088;28;20079;-52
2022/04/28 01:47:35;;;;;;;11.23;6.63;;;3.40;99.90;;;;;;5011469;28;20029;-50
2022/04/28 01:50:02;;;;;;;10.40;6.15;;;3.40;99.90;;;;;;5028931;28;20026;-50
2022/04/28 01:55:12;;;;;;;9.02;5.95;;;3.30;99.90;;;;;;5029225;28;20036;-53
2022/04/28 01:57:39;;;;;;;9.07;6.00;;;3.30;99.90;;;;;;5029344;28;20497;-53
2022/04/28 02:00:06;;;;;;;9.27;6.78;;;3.30;99.90;;;;;;5028966;28;20040;-53
2022/04/28 02:02:33;;;;;;;14.43;7.07;;;3.20;99.90;;;;;;5028257;28;20075;-52
2022/04/28 02:04:59;;;;;;;11.77;6.55;;;3.20;99.90;;;;;;5029032;28;20068;-50
2022/04/28 02:07:28;;;;;;;12.57;6.85;;;3.20;99.90;;;;;;5028999;28;20036;-51
2022/04/28 02:09:55;;;;;;;15.13;6.97;;;3.20;99.90;;;;;;5032639;28;20033;-49
2022/04/28 02:12:21;;;;;;;11.02;7.07;;;3.20;99.90;;;;;;5032786;28;20025;-50
2022/04/28 02:14:47;;;;;;;11.05;7.25;;;3.10;99.90;;;;;;5032732;28;20030;-52
2022/04/28 02:17:21;;;;;;;14.88;7.65;;;3.10;99.90;;;;;;5032866;28;20033;-53
2022/04/28 02:19:47;;;;;;;10.63;7.65;;;3.10;99.90;;;;;;5033075;28;20025;-54
2022/04/28 02:22:13;;;;;;;12.38;7.30;;;3.10;99.90;;;;;;5032486;28;20511;-55
2022/04/28 02:24:38;;;;;;;16.92;7.57;;;3.00;99.90;;;;;;5032310;28;20033;-54
2022/04/28 02:27:04;;;;;;;12.55;7.25;;;3.00;99.90;;;;;;5032656;28;20037;-53
2022/04/28 02:29:30;;;;;;;14.57;7.75;;;3.00;99.90;;;;;;5032607;28;20459;-51
2022/04/28 02:31:56;;;;;;;14.60;8.05;;;3.00;99.90;;;;;;5032558;28;20031;-53
2022/04/28 02:34:22;;;;;;;13.10;7.45;;;3.00;99.90;;;;;;5032746;28;20030;-51
2022/04/28 02:36:48;;;;;;;14.57;7.82;;;3.00;99.90;;;;;;5032505;28;20068;-53
2022/04/28 02:39:14;;;;;;;9.77;6.45;;;3.00;99.90;;;;;;5032367;28;20055;-51
2022/04/28 02:41:41;;;;;;;12.73;7.13;;;3.00;99.90;;;;;;5031910;28;20097;-52
2022/04/28 02:44:06;;;;;;;17.60;8.07;;;3.00;99.90;;;;;;5032098;28;20171;-49
2022/04/28 02:46:32;;;;;;;10.70;6.78;;;2.90;99.90;;;;;;5032011;28;20041;-51
2022/04/28 02:48:58;;;;;;;11.77;7.70;;;2.90;99.90;;;;;;5031970;28;20448;-51
2022/04/28 02:51:23;;;;;;;10.80;6.95;;;2.90;99.90;;;;;;5031913;28;20057;-50
2022/04/28 02:53:49;;;;;;;12.23;6.82;;;2.90;99.90;;;;;;5031668;28;20030;-53
2022/04/28 02:56:15;;;;;;;13.52;7.63;;;2.80;99.90;;;;;;5032061;28;20120;-53
2022/04/28 02:58:40;;;;;;;12.60;7.28;;;2.80;99.90;;;;;;5032019;28;20033;-52
2022/04/28 03:01:06;;;;;;;14.45;6.97;;;2.80;99.90;;;;;;5031781;28;20509;-53
2022/04/28 03:03:32;;;;;;;11.65;7.30;;;2.70;99.90;;;;;;5031415;28;20017;-50
2022/04/28 03:11:27;;;;;;;14.88;7.97;;;2.70;99.90;;;;;;5032050;28;20112;-50
2022/04/28 03:13:53;;;;;;;13.20;8.93;;;2.70;99.90;;;;;;5031808;28;20104;-52
2022/04/28 03:16:18;;;;;;;11.18;7.80;;;2.70;99.90;;;;;;5031684;28;20108;-51
2022/04/28 03:18:44;;;;;;;12.93;7.60;;;2.70;99.90;;;;;;5031789;28;20406;-52
2022/04/28 03:21:11;;;;;;;16.30;8.60;;;2.70;99.90;;;;;;5030708;28;20033;-55
2022/04/28 03:23:37;;;;;;;14.85;8.90;;;2.70;99.90;;;;;;5031036;28;20685;-51
2022/04/28 03:26:03;;;;;;;14.23;9.05;;;2.70;99.90;;;;;;5031557;28;20060;-52
2022/04/28 03:28:34;;;;;;;16.90;10.02;;;2.70;99.90;;;;;;5031390;28;20025;-50
2022/04/28 03:30:59;;;;;;;11.80;8.73;;;2.70;99.90;;;;;;5031427;28;20031;-50
2022/04/28 03:33:25;;;;;;;14.70;9.70;;;2.70;99.90;;;;;;5030770;28;20025;-54
2022/04/28 03:35:50;;;;;;;13.38;8.68;;;2.60;99.90;;;;;;5031516;28;20025;-53
2022/04/28 03:38:16;;;;;;;17.73;10.55;;;2.60;99.90;;;;;;5031225;28;20041;-50
2022/04/28 03:40:42;;;;;;;15.13;9.73;;;2.50;99.90;;;;;;5013873;28;20087;-51
2022/04/28 03:43:09;;;;;;;17.10;10.93;;;2.50;99.90;;;;;;5031113;28;20523;-52
2022/04/28 03:45:36;;;;;;;18.77;10.70;;;2.50;99.90;;;;;;5013461;28;20060;-52
2022/04/28 03:48:03;;;;;;;14.75;10.00;;;2.50;99.90;;;;;;5013466;28;20029;-52
2022/04/28 03:50:29;;;;;;;17.58;10.73;;;2.50;99.90;;;;;;5031153;28;20025;-51
2022/04/28 03:52:56;;;;;;;19.90;11.02;;;2.50;99.90;;;;;;5012990;28;20029;-52
2022/04/28 03:55:22;;;;;;;19.63;11.55;;;2.50;99.90;;;;;;5031164;28;20029;-55
2022/04/28 03:57:47;;;;;;;20.15;12.23;;;2.50;99.90;;;;;;5031080;28;20044;-54
2022/04/28 04:00:13;;;;;;;21.95;12.13;;;2.50;99.90;;;;;;5030826;28;20033;-54
2022/04/28 04:02:39;;;;;;;19.00;12.57;;;2.50;99.90;;;;;;5030823;28;20105;-51
2022/04/28 04:05:06;;;;;;;21.02;12.13;;;2.50;99.90;;;;;;5030630;28;20033;-51
2022/04/28 04:07:33;;;;;;;20.50;11.48;;;2.50;99.90;;;;;;5030594;28;20068;-53
2022/04/28 04:09:59;;;;;;;21.73;12.20;;;2.50;99.90;;;;;;5030751;28;20044;-51
2022/04/28 04:12:25;;;;;;;18.70;11.95;;;2.60;99.90;;;;;;5030349;28;20032;-55
2022/04/28 04:14:52;;;;;;;20.40;11.93;;;2.60;99.90;;;;;;5029461;28;20025;-51
2022/04/28 04:17:19;;;;;;;22.17;12.00;;;2.50;99.90;;;;;;5030471;28;20037;-52
2022/04/28 04:19:44;;;;;;;19.10;11.98;;;2.50;99.90;;;;;;5012849;28;20080;-51
2022/04/28 04:22:10;;;;;;;21.40;11.57;;;2.50;99.90;;;;;;5029992;28;20033;-52
2022/04/28 04:24:36;;;;;;;18.02;12.05;;;2.50;99.90;;;;;;5030479;28;20033;-51
2022/04/28 04:27:02;;;;;;;19.08;11.52;;;2.50;99.90;;;;;;5030631;28;20053;-51
2022/04/28 04:29:27;;;;;;;19.45;12.10;;;2.50;99.90;;;;;;5030214;28;20056;-52
2022/04/28 04:34:37;;;;;;;19.23;11.60;;;2.50;99.90;;;;;;5029144;28;20042;-52
2022/04/28 04:37:03;;;;;;;21.08;11.45;;;2.50;99.90;;;;;;5029462;28;20021;-53
2022/04/28 04:39:28;;;;;;;25.73;13.68;;;2.50;99.90;;;;;;5029967;28;20613;-52
2022/04/28 04:41:54;;;;;;;21.08;13.52;;;2.60;99.90;;;;;;5030108;28;20125;-55
2022/04/28 04:44:20;;;;;;;19.65;12.85;;;2.60;99.90;;;;;;5029460;28;20075;-51
2022/04/28 04:46:45;;;;;;;21.65;13.55;;;2.60;99.90;;;;;;5012001;28;20025;-52
2022/04/28 04:49:11;;;;;;;18.23;11.00;;;2.60;99.90;;;;;;5029900;28;20061;-54
2022/04/28 04:51:36;;;;;;;20.55;13.35;;;2.60;99.90;;;;;;5026724;28;20029;-54
2022/04/28 04:54:02;;;;;;;22.70;13.73;;;2.70;99.90;;;;;;5029975;28;20040;-51
2022/04/28 04:56:28;;;;;;;21.67;13.85;;;2.70;99.90;;;;;;5030020;28;20033;-51
2022/04/28 04:58:53;;;;;;;22.83;13.90;;;2.70;99.90;;;;;;5030034;28;20580;-54
2022/04/28 05:01:19;;;;;;;22.02;12.95;;;2.70;99.90;;;;;;5029573;28;20026;-54
2022/04/28 05:03:44;;;;;;;24.23;13.30;;;2.80;99.90;;;;;;5029579;28;20116;-54
2022/04/28 05:06:10;;;;;;;19.55;13.13;;;2.80;99.90;;;;;;5030102;28;20025;-55
2022/04/28 05:08:35;;;;;;;22.38;13.80;;;2.80;99.90;;;;;;5029606;28;20029;-54
2022/04/28 05:11:01;;;;;;;22.20;14.65;;;2.80;99.90;;;;;;5029684;28;20032;-54
2022/04/28 05:13:27;;;;;;;24.33;13.10;;;2.80;99.90;;;;;;5028754;28;20094;-50
2022/04/28 05:15:52;;;;;;;21.48;12.82;;;2.90;99.90;;;;;;5029702;28;20022;-54
2022/04/28 05:18:18;;;;;;;22.67;13.38;;;2.90;99.90;;;;;;5011580;28;20029;-53
2022/04/28 05:20:43;;;;;;;18.77;13.55;;;3.00;99.90;;;;;;5029747;28;20083;-52
2022/04/28 05:23:09;;;;;;;24.52;12.63;;;3.00;99.90;;;;;;5028138;28;20096;-53
2022/04/28 05:25:34;;;;;;;23.70;14.18;;;3.10;99.90;;;;;;5029112;28;20033;-51
2022/04/28 05:28:00;;;;;;;20.98;12.90;;;3.10;99.90;;;;;;5029445;28;20029;-50
2022/04/28 05:30:25;;;;;;;19.85;12.77;;;3.20;99.90;;;;;;5028992;28;20448;-54
2022/04/28 05:32:51;;;;;;;20.52;13.57;;;3.30;99.90;;;;;;5029100;28;20485;-53
2022/04/28 05:35:17;;;;;;;17.85;12.63;;;3.30;99.90;;;;;;5029131;28;20034;-50
2022/04/28 05:37:42;;;;;;;17.73;11.82;;;3.40;99.90;;;;;;5011539;28;20037;-50
2022/04/28 05:40:11;;;;;;;17.13;11.43;;;3.50;99.90;;;;;;5011647;28;20029;-53
2022/04/28 05:48:07;;;;;;;21.50;11.93;;;3.70;99.90;;;;;;5011180;28;20036;-52
2022/04/28 05:50:33;;;;;;;14.45;11.60;;;3.80;99.90;;;;;;5023012;28;20030;-51
2022/04/28 05:52:59;;;;;;;19.85;12.10;;;3.90;99.90;;;;;;5028624;28;20497;-53
2022/04/28 05:55:24;;;;;;;17.67;12.23;;;4.00;99.90;;;;;;5029198;28;20084;-54
2022/04/28 05:57:50;;;;;;;20.65;12.50;;;4.10;99.90;;;;;;5029157;28;20244;-53
2022/04/28 06:00:16;;;;;;;19.10;12.38;;;4.10;99.90;;;;;;5029173;28;20029;-52
2022/04/28 06:02:41;;;;;;;17.65;11.13;;;4.20;99.90;;;;;;5011143;28;20056;-51
2022/04/28 06:05:07;;;;;;;21.55;11.50;;;4.30;99.90;;;;;;5029092;28;20073;-52
2022/04/28 06:07:33;;;;;;;16.65;11.48;;;4.40;99.90;;;;;;5028949;28;20115;-54
2022/04/28 06:09:59;;;;;;;15.25;10.85;;;4.60;99.90;;;;;;5011054;28;20021;-52
2022/04/28 06:12:27;;;;;;;14.18;10.00;;;4.70;99.90;;;;;;5029175;28;20021;-50
2022/04/28 06:14:54;;;;;;;14.40;10.45;;;4.80;99.90;;;;;;5028602;28;20022;-51
2022/04/28 06:17:19;;;;;;;16.45;10.45;;;5.00;99.90;;;;;;5029160;28;20032;-53
2022/04/28 06:19:45;;;;;;;15.57;10.02;;;5.10;99.90;;;;;;5029256;28;20421;-51
2022/04/28 06:22:11;;;;;;;17.02;10.10;;;5.30;99.90;;;;;;5028391;28;20029;-50
2022/04/28 06:24:37;;;;;;;16.40;10.93;;;5.40;99.90;;;;;;5011323;28;20034;-52
2022/04/28 06:27:03;;;;;;;18.42;10.18;;;5.50;99.90;;;;;;5028827;28;20029;-52
2022/04/28 06:29:28;;;;;;;15.80;10.40;;;5.70;99.90;;;;;;5028770;28;20486;-56
2022/04/28 06:31:54;;;;;;;13.30;9.48;;;5.90;99.90;;;;;;5010431;28;20060;-50
2022/04/28 06:34:19;;;;;;;16.40;9.88;;;6.20;99.90;;;;;;5028763;28;20028;-49
2022/04/28 06:36:45;;;;;;;16.05;8.90;;;6.50;99.90;;;;;;5028387;28;20482;-52
2022/04/28 06:39:10;;;;;;;12.55;8.75;;;6.70;99.90;;;;;;5028994;28;20035;-52
2022/04/28 06:41:36;;;;;;;14.25;9.15;;;7.00;99.90;;;;;;5028549;28;20043;-51
2022/04/28 06:44:02;;;;;;;14.43;8.85;;;7.10;99.90;;;;;;5028610;28;20036;-51
2022/04/28 06:46:28;;;;;;;14.20;8.30;;;7.40;99.90;;;;;;5028657;28;20029;-50
2022/04/28 06:48:53;;;;;;;10.25;7.57;;;7.60;99.90;;;;;;5028775;28;20021;-50
2022/04/28 06:51:19;;;;;;;11.20;6.97;;;7.80;99.90;;;;;;5027889;28;20029;-53
2022/04/28 06:53:45;;;;;;;7.57;6.53;;;8.10;99.90;;;;;;5028586;28;20030;-51
2022/04/28 06:56:10;;;;;;;14.32;6.50;;;8.30;99.90;;;;;;5031044;28;20551;-53
2022/04/28 06:58:37;;;;;;;11.77;5.25;;;8.60;99.90;;;;;;5032365;28;20053;-51
2022/04/28 07:01:03;;;;;;;11.85;5.85;;;8.90;99.90;;;;;;5031860;28;20033;-52
2022/04/28 07:03:29;;;;;;;9.55;5.78;;;9.10;99.90;;;;;;5031887;28;20033;-52
2022/04/28 07:05:54;;;;;;;9.55;5.20;;;9.40;99.90;;;;;;5031664;28;20464;-51
2022/04/28 07:08:20;;;;;;;8.57;4.90;;;9.60;99.90;;;;;;5014620;28;20022;-51
2022/04/28 07:10:46;;;;;;;11.02;5.95;;;9.80;99.90;;;;;;5030873;28;20037;-52
2022/04/28 07:13:11;;;;;;;7.85;5.38;;;10.00;99.90;;;;;;5031579;28;20053;-51
2022/04/28 07:15:38;;;;;;;7.25;4.80;;;10.20;99.90;;;;;;5031755;28;20030;-53
2022/04/28 07:18:05;;;;;;;6.38;5.05;;;10.50;99.90;;;;;;5014350;28;20382;-54
2022/04/28 07:20:34;;;;;;;8.90;4.72;;;10.60;99.90;;;;;;5031125;28;20033;-53
2022/04/28 07:23:01;;;;;;;8.88;5.25;;;10.80;99.90;;;;;;5031621;28;20025;-54
2022/04/28 07:25:27;;;;;;;9.20;5.05;;;11.00;99.90;;;;;;5031517;28;20033;-54
2022/04/28 07:27:53;;;;;;;11.82;5.20;;;11.20;99.90;;;;;;5031628;28;20504;-53
2022/04/28 07:30:20;;;;;;;8.75;4.93;;;11.20;99.90;;;;;;5030636;28;20493;-53
2022/04/28 07:32:50;;;;;;;4.65;4.18;;;11.30;99.90;;;;;;5031609;28;20037;-52
2022/04/28 07:35:16;;;;;;;5.15;4.53;;;11.40;99.90;;;;;;5031259;28;20033;-53
2022/04/28 07:37:42;;;;;;;7.60;3.53;;;11.70;99.90;;;;;;5031335;28;20401;-54
2022/04/28 07:40:08;;;;;;;8.23;3.78;;;11.90;99.90;;;;;;5031262;28;20116;-55
2022/04/28 07:42:34;;;;;;;7.97;4.32;;;12.10;99.90;;;;;;5021818;28;20022;-52
2022/04/28 07:45:00;;;;;;;5.38;4.10;;;12.30;99.90;;;;;;5030660;28;20037;-55
2022/04/28 07:47:28;;;;;;;9.90;4.78;;;12.30;99.90;;;;;;5031440;28;20025;-54
2022/04/28 07:49:54;;;;;;;4.20;3.33;;;12.50;99.90;;;;;;5031284;28;20119;-52
2022/04/28 07:52:20;;;;;;;7.00;4.13;;;12.60;99.90;;;;;;5031040;28;20442;-53
2022/04/28 07:54:46;;;;;;;7.30;3.75;;;12.80;99.90;;;;;;5031069;28;20053;-54
2022/04/28 07:57:11;;;;;;;6.57;3.88;;;12.60;99.90;;;;;;5013413;28;20063;-52
2022/04/28 07:59:37;;;;;;;9.98;4.38;;;12.70;99.90;;;;;;5030762;28;20037;-53
2022/04/28 08:02:03;;;;;;;8.20;4.40;;;12.90;99.90;;;;;;5027761;28;20037;-53
2022/04/28 08:04:30;;;;;;;4.85;4.05;;;13.10;99.90;;;;;;4996393;28;20029;-49
2022/04/28 08:06:56;;;;;;;11.70;5.43;;;13.30;99.90;;;;;;5030718;28;20104;-51
2022/04/28 08:09:22;;;;;;;7.80;4.43;;;13.40;99.90;;;;;;5030807;28;20116;-56
2022/04/28 08:11:47;;;;;;;6.95;5.47;;;13.60;99.90;;;;;;5030653;28;20036;-52
2022/04/28 08:14:13;;;;;;;6.03;4.30;;;13.80;99.90;;;;;;5030893;28;20043;-54
2022/04/28 08:16:39;;;;;;;9.02;5.28;;;14.00;99.90;;;;;;5028559;28;20112;-53
2022/04/28 08:19:04;;;;;;;8.73;5.88;;;14.20;99.90;;;;;;5030359;28;20105;-52
2022/04/28 08:21:30;;;;;;;5.75;3.88;;;14.30;99.90;;;;;;5028097;28;20025;-51
2022/04/28 08:23:57;;;;;;;7.45;4.53;;;14.50;99.90;;;;;;5030188;28;20397;-51
2022/04/28 08:26:22;;;;;;;6.72;4.40;;;14.40;99.90;;;;;;5011679;28;20033;-50
2022/04/28 08:28:48;;;;;;;6.63;5.07;;;14.70;99.90;;;;;;5029282;28;20405;-51
2022/04/28 08:31:13;;;;;;;7.72;4.68;;;14.90;99.90;;;;;;5029576;28;20041;-49
2022/04/28 08:33:39;;;;;;;5.65;4.93;;;15.10;99.90;;;;;;5027275;28;20053;-50
2022/04/28 08:36:05;;;;;;;8.38;4.57;;;15.40;99.90;;;;;;5026864;28;20036;-54
2022/04/28 08:38:31;;;;;;;7.72;5.00;;;15.50;99.90;;;;;;5021472;28;20096;-50
2022/04/28 08:41:03;;;;;;;8.88;5.18;;;15.40;99.60;;;;;;5029738;28;20079;-54
2022/04/28 08:43:31;;;;;;;6.03;4.53;;;15.40;99.90;;;;;;5027609;28;20033;-53
2022/04/28 08:48:53;;;;;;;6.85;4.45;;;15.90;99.90;;;;;;5021418;28;20032;-53
2022/04/28 08:51:20;;;;;;;5.57;4.82;;;16.10;98.30;;;;;;5017360;28;20503;-53
2022/04/28 08:53:48;;;;;;;5.38;4.40;;;15.90;97.80;;;;;;5029927;28;20470;-53
2022/04/28 08:56:16;;;;;;;7.28;5.03;;;16.00;98.60;;;;;;5029996;28;20032;-54
2022/04/28 08:58:41;;;;;;;11.35;4.85;;;16.10;97.80;;;;;;5030212;28;20096;-51
2022/04/28 09:01:07;;;;;;;6.40;5.05;;;16.30;98.40;;;;;;5027174;28;20446;-53
2022/04/28 09:03:32;;;;;;;6.57;4.53;;;16.40;98.50;;;;;;5029543;28;20032;-55
2022/04/28 09:06:19;;;;;;;6.43;4.72;;;16.60;97.30;;;;;;5029698;28;20151;-54
2022/04/28 09:08:45;;;;;;;8.32;5.32;;;16.70;97.00;;;;;;5030022;28;20032;-52
2022/04/28 09:11:21;;;;;;;7.47;5.15;;;16.90;96.30;;;;;;5028659;28;20045;-55
2022/04/28 09:16:50;;;;;;;11.80;5.05;;;16.90;94.20;;;;;;5029834;28;20293;-51
2022/04/28 09:19:26;;;;;;;8.93;5.05;;;17.00;97.00;;;;;;5029352;28;20021;-53
2022/04/28 09:21:54;;;;;;;;;;;17.00;96.20;;;;;;5011479;28;20112;-53
2022/04/28 09:24:21;;;;;;;7.53;4.88;;;17.20;95.20;;;;;;5011409;28;19917;-51
2022/04/28 09:26:51;;;;;;;6.30;5.00;;;17.20;94.40;;;;;;5028905;28;20048;-51
2022/04/28 09:29:18;;;;;;;6.22;4.70;;;17.40;94.30;;;;;;5029895;28;20505;-53
2022/04/28 09:31:45;;;;;;;9.85;5.80;;;17.40;93.50;;;;;;5028655;28;20075;-50
2022/04/28 09:34:16;;;;;;;7.47;4.78;;;17.50;94.80;;;;;;5011123;28;20024;-53
2022/04/28 09:36:43;;;;;;;5.63;4.53;;;17.60;93.40;;;;;;5028958;28;20026;-54
2022/04/28 09:39:13;;;;;;;6.95;4.80;;;17.70;92.60;;;;;;5029446;28;20036;-50
2022/04/28 09:44:24;;;;;;;6.57;5.30;;;18.00;92.60;;;;;;5029173;28;20508;-52
2022/04/28 09:46:51;;;;;;;10.35;5.60;;;17.80;92.40;;;;;;5029540;28;20767;-50
2022/04/28 09:49:21;;;;;;;7.10;5.47;;;17.60;90.90;;;;;;5029258;28;20029;-51
2022/04/28 09:51:46;;;;;;;10.23;6.18;;;17.20;92.40;;;;;;5028540;28;20033;-54
2022/04/28 09:54:14;;;;;;;7.57;5.10;;;16.50;93.10;;;;;;5028598;28;20155;-53
2022/04/28 09:56:43;;;;;;;7.93;5.63;;;16.70;93.80;;;;;;5029071;28;20028;-52
2022/04/28 09:59:11;;;;;;;7.85;5.32;;;16.90;91.20;;;;;;5029238;28;20716;-51
2022/04/28 10:01:37;;;;;;;7.10;5.75;;;16.90;94.60;;;;;;5028443;28;20394;-52
2022/04/28 10:04:04;;;;;;;6.90;5.30;;;17.20;94.60;;;;;;5020651;28;20026;-55
2022/04/28 10:06:38;;;;;;;7.32;4.97;;;17.40;93.80;;;;;;5028813;28;20124;-53
2022/04/28 10:09:09;;;;;;;7.32;5.07;;;17.60;95.20;;;;;;5011856;28;20037;-55
2022/04/28 10:11:35;;;;;;;8.52;5.15;;;17.80;92.50;;;;;;5011928;28;20036;-51
2022/04/28 10:14:01;;;;;;;8.20;5.20;;;18.00;92.30;;;;;;5030527;28;20080;-55
2022/04/28 10:16:27;;;;;;;7.07;5.95;;;17.90;91.90;;;;;;5029992;28;20450;-50
2022/04/28 10:19:09;;;;;;;9.82;5.30;;;17.90;90.70;;;;;;5029634;28;20109;-54
2022/04/28 10:21:44;;;;;;;5.38;4.57;;;17.90;92.20;;;;;;5011365;28;20029;-52
2022/04/28 10:32:53;;;;;;;4.72;4.28;;;17.50;93.30;;;;;;5032813;28;20037;-53
2022/04/28 10:35:31;;;;;;;7.65;6.30;;;17.60;93.30;;;;;;5032895;28;20026;-50
2022/04/28 10:38:09;;;;;;;8.15;5.15;;;17.60;93.80;;;;;;5032703;28;20024;-50
2022/04/28 10:40:40;;;;;;;7.93;5.30;;;17.80;92.10;;;;;;5031994;28;20061;-51
2022/04/28 10:43:23;;;;;;;6.75;5.20;;;17.70;91.30;;;;;;5023658;28;20030;-51
2022/04/28 10:45:49;;;;;;;8.80;5.28;;;17.60;91.90;;;;;;5014687;28;20029;-50
2022/04/28 10:48:29;;;;;;;6.20;5.60;;;17.80;94.00;;;;;;5032432;28;20087;-50
2022/04/28 10:51:16;;;;;;;9.70;5.28;;;17.90;92.70;;;;;;5032494;28;20045;-53
2022/04/28 10:54:09;;;;;;;11.50;5.78;;;17.80;91.30;;;;;;5014894;28;20400;-54
2022/04/28 10:56:48;;;;;;;7.22;4.93;;;17.50;89.50;;;;;;5032624;28;20045;-54
2022/04/28 10:59:35;;;;;;;6.38;5.28;;;17.30;88.70;;;;;;5032514;28;20022;-52
2022/04/28 11:02:15;;;;;;;;;;;17.40;90.20;;;;;;5032299;28;20032;-54
2022/04/28 11:05:06;;;;;;;9.82;5.05;;;17.30;90.00;;;;;;5014250;28;19932;-55
2022/04/28 11:07:32;;;;;;;8.13;5.53;;;17.10;90.10;;;;;;5032283;28;20064;-55
2022/04/28 11:10:00;;;;;;;10.60;6.03;;;17.10;91.30;;;;;;5032026;28;20030;-55
2022/04/28 11:12:34;;;;;;;8.25;5.85;;;16.70;90.40;;;;;;5031968;28;20022;-52
2022/04/28 11:15:03;;;;;;;10.45;5.97;;;16.30;91.40;;;;;;5031775;28;20055;-52
2022/04/28 11:17:31;;;;;;;7.10;5.43;;;16.00;91.60;;;;;;5011474;28;20037;-53
2022/04/28 11:20:01;;;;;;;16.27;6.53;;;15.90;92.00;;;;;;5013284;28;20508;-55
2022/04/28 11:22:28;;;;;;;7.82;6.07;;;16.20;92.40;;;;;;5031771;28;20037;-52
2022/04/28 11:24:54;;;;;;;8.45;5.88;;;16.40;91.10;;;;;;5031567;28;20030;-54
2022/04/28 11:27:21;;;;;;;6.28;5.65;;;16.40;91.10;;;;;;5013158;28;20115;-54
2022/04/28 11:29:49;;;;;;;11.10;5.45;;;16.50;90.10;;;;;;5031005;28;20044;-54
2022/04/28 11:32:18;;;;;;;8.18;5.25;;;16.30;90.10;;;;;;5002487;28;20030;-51
2022/04/28 11:34:44;;;;;;;7.53;6.20;;;16.10;90.80;;;;;;5030919;28;20021;-51
2022/04/28 11:37:17;;;;;;;7.65;5.30;;;16.00;91.30;;;;;;5030789;28;20017;-53
2022/04/28 11:39:47;;;;;;;8.30;5.95;;;16.00;91.30;;;;;;5022104;28;20083;-49
2022/04/28 11:42:16;;;;;;;7.18;6.00;;;16.20;90.90;;;;;;5029857;28;20115;-52
2022/04/28 11:44:53;;;;;;;9.18;5.03;;;16.40;92.00;;;;;;5025673;28;20025;-51
2022/04/28 11:47:24;;;;;;;7.65;4.85;;;16.80;92.90;;;;;;5030825;28;20033;-50
2022/04/28 11:50:01;;;;;;;10.13;5.72;;;17.00;91.60;;;;;;5012501;28;20671;-50
2022/04/28 11:52:29;;;;;;;6.93;5.00;;;17.20;91.40;;;;;;5030780;28;20029;-53
2022/04/28 11:55:04;;;;;;;15.95;5.78;;;17.10;91.00;;;;;;5030960;28;20025;-50
2022/04/28 11:57:30;;;;;;;7.57;5.23;;;17.10;91.00;;;;;;5030321;28;20026;-50
2022/04/28 11:59:58;;;;;;;7.53;5.60;;;17.20;90.00;;;;;;5015020;28;20845;-50
2022/04/28 12:02:24;;;;;;;7.10;5.35;;;17.30;88.20;;;;;;5031124;28;20040;-54
2022/04/28 12:04:50;;;;;;;6.13;4.70;;;17.40;87.50;;;;;;5030504;28;20091;-53
2022/04/28 12:07:25;;;;;;;10.07;4.95;;;17.40;85.20;;;;;;5031115;28;20554;-53
2022/04/28 12:15:22;;;;;;;6.35;4.50;;;17.90;84.80;;;;;;5030523;28;20044;-51
2022/04/28 12:21:01;;;;;;;5.72;4.53;;;17.40;83.40;;;;;;5029716;28;20064;-49
2022/04/28 12:23:29;;;;;;;8.15;5.40;;;16.90;86.70;;;;;;5028978;28;20025;-51
2022/04/28 12:26:02;;;;;;;9.85;5.70;;;16.90;89.50;;;;;;5027619;28;20021;-52
2022/04/28 12:28:38;;;;;;;5.97;5.32;;;17.10;89.90;;;;;;5029542;28;20084;-52
2022/04/28 12:31:04;;;;;;;9.65;5.55;;;17.20;86.70;;;;;;5028213;28;20493;-53
2022/04/28 12:33:33;;;;;;;9.63;5.57;;;17.30;86.80;;;;;;5027515;28;20093;-52
2022/04/28 12:35:59;;;;;;;7.80;5.78;;;17.40;90.10;;;;;;5027625;28;20028;-52
2022/04/28 12:38:26;;;;;;;7.07;4.78;;;17.50;87.30;;;;;;5028579;28;20022;-49
2022/04/28 12:40:52;;;;;;;7.05;5.28;;;17.60;86.50;;;;;;5029045;28;20033;-50
2022/04/28 12:43:38;;;;;;;7.00;5.20;;;17.60;84.80;;;;;;5027970;28;20184;-56
2022/04/28 12:46:05;;;;;;;8.57;5.70;;;17.80;86.50;;;;;;5029161;28;20408;-51
2022/04/28 12:48:35;;;;;;;6.00;4.70;;;18.20;84.90;;;;;;5028889;28;20029;-55
2022/04/28 12:51:21;;;;;;;6.78;4.25;;;18.50;87.70;;;;;;5028803;28;20401;-55
2022/04/28 12:53:52;;;;;;;8.18;5.70;;;18.80;86.10;;;;;;5027591;28;20546;-54
2022/04/28 12:56:28;;;;;;;5.45;4.43;;;18.80;83.80;;;;;;5027538;28;20060;-55
2022/04/28 12:58:55;;;;;;;;;;;18.60;87.00;;;;;;5029798;28;20025;-53
2022/04/28 13:01:21;;;;;;;9.82;6.35;;;18.30;83.40;;;;;;5028832;28;19970;-54
2022/04/28 13:04:03;;;;;;;8.57;5.82;;;17.60;84.60;;;;;;5011435;28;20646;-56
2022/04/28 13:06:30;;;;;;;6.80;4.97;;;17.50;88.20;;;;;;5028101;28;20029;-52
2022/04/28 13:08:57;;;;;;;7.50;5.45;;;17.70;87.60;;;;;;5029242;28;20036;-56
2022/04/28 13:11:28;;;;;;;9.40;6.22;;;18.00;88.10;;;;;;5028493;28;20381;-49
2022/04/28 13:13:54;;;;;;;7.82;5.88;;;18.00;86.60;;;;;;5029146;28;20032;-53
2022/04/28 13:16:21;;;;;;;7.30;5.18;;;17.90;87.70;;;;;;5028659;28;20028;-52
2022/04/28 13:18:47;;;;;;;7.03;5.95;;;18.10;87.80;;;;;;5028775;28;20080;-53
2022/04/28 13:21:15;;;;;;;9.70;5.47;;;18.20;85.20;;;;;;5027212;28;20559;-54
2022/04/28 13:23:42;;;;;;;5.40;4.80;;;18.50;84.90;;;;;;5028332;28;20695;-49
2022/04/28 13:26:08;;;;;;;6.82;4.80;;;18.60;82.60;;;;;;5028058;28;20033;-50
2022/04/28 13:28:34;;;;;;;7.47;4.50;;;18.50;85.70;;;;;;5028499;28;20021;-50
2022/04/28 13:31:00;;;;;;;6.20;4.85;;;18.50;83.30;;;;;;5028142;28;20048;-53